sensor_id;sensor_type;location;lat;lon;timestamp;pressure;altitude;pressure_sealevel;temperature;humidity
29045;BME280;16133;49.486;12.176;2024-01-25T00:01:09;98246.94;;;6.01;90.36
29045;BME280;16133;49.486;12.176;2024-01-25T00:03:35;98244.59;;;6.07;90.70
29045;BME280;16133;49.486;12.176;2024-01-25T00:06:00;98242.50;;;6.01;91.12
29045;BME280;16133;49.486;12.176;2024-01-25T00:08:25;98243.81;;;6.16;90.32
29045;BME280;16133;49.486;12.176;2024-01-25T00:10:51;98230.59;;;6.07;90.81
29045;BME280;16133;49.486;12.176;2024-01-25T00:13:16;98234.78;;;6.09;91.15
29045;BME280;16133;49.486;12.176;2024-01-25T00:15:41;98232.16;;;6.09;91.25
29045;BME280;16133;49.486;12.176;2024-01-25T00:18:07;98236.16;;;6.13;90.45
29045;BME280;16133;49.486;12.176;2024-01-25T00:20:32;98239.22;;;6.09;91.51
29045;BME280;16133;49.486;12.176;2024-01-25T00:22:58;98232.53;;;6.05;91.79
29045;BME280;16133;49.486;12.176;2024-01-25T00:25:23;98228.59;;;5.99;91.94
29045;BME280;16133;49.486;12.176;2024-01-25T00:27:49;98223.31;;;5.90;92.01
29045;BME280;16133;49.486;12.176;2024-01-25T00:30:14;98213.88;;;5.76;93.45
29045;BME280;16133;49.486;12.176;2024-01-25T00:32:39;98216.53;;;5.76;93.91
29045;BME280;16133;49.486;12.176;2024-01-25T00:35:05;98220.91;;;5.66;94.41
29045;BME280;16133;49.486;12.176;2024-01-25T00:37:31;98229.94;;;5.52;95.15
29045;BME280;16133;49.486;12.176;2024-01-25T00:39:57;98221.34;;;5.50;95.57
29045;BME280;16133;49.486;12.176;2024-01-25T00:42:23;98224.09;;;5.49;96.12
29045;BME280;16133;49.486;12.176;2024-01-25T00:44:49;98210.75;;;5.41;96.85
29045;BME280;16133;49.486;12.176;2024-01-25T00:47:15;98206.59;;;5.38;97.29
29045;BME280;16133;49.486;12.176;2024-01-25T00:49:40;98218.84;;;5.49;97.48
29045;BME280;16133;49.486;12.176;2024-01-25T00:52:06;98219.81;;;5.48;97.54
29045;BME280;16133;49.486;12.176;2024-01-25T00:54:32;98225.59;;;5.42;97.54
29045;BME280;16133;49.486;12.176;2024-01-25T00:56:58;98216.28;;;5.38;98.19
29045;BME280;16133;49.486;12.176;2024-01-25T00:59:23;98214.59;;;5.37;99.07
29045;BME280;16133;49.486;12.176;2024-01-25T01:01:52;98219.38;;;5.43;98.92
29045;BME280;16133;49.486;12.176;2024-01-25T01:04:18;98218.84;;;5.49;98.83
29045;BME280;16133;49.486;12.176;2024-01-25T01:06:43;98215.97;;;5.52;99.02
29045;BME280;16133;49.486;12.176;2024-01-25T01:09:09;98212.25;;;5.54;98.16
29045;BME280;16133;49.486;12.176;2024-01-25T01:11:36;98213.66;;;5.58;99.17
29045;BME280;16133;49.486;12.176;2024-01-25T01:14:01;98213.97;;;5.65;98.88
29045;BME280;16133;49.486;12.176;2024-01-25T01:16:27;98225.66;;;5.72;98.51
29045;BME280;16133;49.486;12.176;2024-01-25T01:18:52;98226.38;;;5.74;98.28
29045;BME280;16133;49.486;12.176;2024-01-25T01:21:17;98226.78;;;5.79;98.24
29045;BME280;16133;49.486;12.176;2024-01-25T01:23:43;98223.09;;;5.82;97.94
29045;BME280;16133;49.486;12.176;2024-01-25T01:26:11;98231.78;;;5.93;97.09
29045;BME280;16133;49.486;12.176;2024-01-25T01:28:37;98227.00;;;5.87;97.17
29045;BME280;16133;49.486;12.176;2024-01-25T01:31:02;98229.41;;;5.90;96.92
29045;BME280;16133;49.486;12.176;2024-01-25T01:33:27;98232.03;;;5.90;97.15
29045;BME280;16133;49.486;12.176;2024-01-25T01:35:53;98234.50;;;6.12;95.78
29045;BME280;16133;49.486;12.176;2024-01-25T01:38:18;98232.25;;;6.08;95.68
29045;BME280;16133;49.486;12.176;2024-01-25T01:40:44;98232.16;;;6.09;95.45
29045;BME280;16133;49.486;12.176;2024-01-25T01:43:18;98227.84;;;6.18;94.56
29045;BME280;16133;49.486;12.176;2024-01-25T01:45:43;98230.88;;;6.13;94.70
29045;BME280;16133;49.486;12.176;2024-01-25T01:48:09;98244.13;;;6.23;94.70
29045;BME280;16133;49.486;12.176;2024-01-25T01:50:34;98244.97;;;6.23;94.38
29045;BME280;16133;49.486;12.176;2024-01-25T01:52:59;98242.31;;;6.23;93.72
29045;BME280;16133;49.486;12.176;2024-01-25T01:55:26;98240.66;;;6.22;94.02
29045;BME280;16133;49.486;12.176;2024-01-25T01:57:51;98245.91;;;6.22;94.05
29045;BME280;16133;49.486;12.176;2024-01-25T02:00:17;98212.97;;;6.07;94.67
29045;BME280;16133;49.486;12.176;2024-01-25T02:02:43;98244.91;;;6.14;94.04
29045;BME280;16133;49.486;12.176;2024-01-25T02:05:09;98251.16;;;6.13;94.64
29045;BME280;16133;49.486;12.176;2024-01-25T02:07:36;98246.28;;;6.08;94.81
29045;BME280;16133;49.486;12.176;2024-01-25T02:10:03;98249.09;;;6.16;94.89
29045;BME280;16133;49.486;12.176;2024-01-25T02:12:28;98243.38;;;6.11;95.13
29045;BME280;16133;49.486;12.176;2024-01-25T02:14:55;98235.72;;;6.08;94.84
29045;BME280;16133;49.486;12.176;2024-01-25T02:17:20;98235.28;;;6.03;95.37
29045;BME280;16133;49.486;12.176;2024-01-25T02:19:46;98228.59;;;5.99;95.32
29045;BME280;16133;49.486;12.176;2024-01-25T02:22:14;98223.59;;;5.96;95.50
29045;BME280;16133;49.486;12.176;2024-01-25T02:24:40;98226.94;;;5.98;95.80
29045;BME280;16133;49.486;12.176;2024-01-25T02:27:05;98226.50;;;5.93;95.75
29045;BME280;16133;49.486;12.176;2024-01-25T02:29:30;98226.94;;;5.98;95.73
29045;BME280;16133;49.486;12.176;2024-01-25T02:31:56;98228.88;;;5.96;96.21
29045;BME280;16133;49.486;12.176;2024-01-25T02:34:21;98230.56;;;5.97;96.21
29045;BME280;16133;49.486;12.176;2024-01-25T02:36:47;98226.91;;;5.89;96.81
29045;BME280;16133;49.486;12.176;2024-01-25T02:39:12;98224.25;;;5.89;96.91
29045;BME280;16133;49.486;12.176;2024-01-25T02:41:37;98225.66;;;5.93;97.02
29045;BME280;16133;49.486;12.176;2024-01-25T02:44:03;98231.38;;;5.98;96.66
29045;BME280;16133;49.486;12.176;2024-01-25T02:46:28;98232.66;;;6.03;96.77
29045;BME280;16133;49.486;12.176;2024-01-25T02:48:54;98231.69;;;6.04;95.88
29045;BME280;16133;49.486;12.176;2024-01-25T02:51:19;98229.06;;;6.04;96.00
29045;BME280;16133;49.486;12.176;2024-01-25T02:53:44;98233.38;;;6.05;95.98
29045;BME280;16133;49.486;12.176;2024-01-25T02:56:09;98241.69;;;6.10;95.85
29045;BME280;16133;49.486;12.176;2024-01-25T02:58:35;98227.84;;;6.08;96.04
29045;BME280;16133;49.486;12.176;2024-01-25T03:01:00;98228.13;;;6.15;95.73
29045;BME280;16133;49.486;12.176;2024-01-25T03:03:26;98226.34;;;6.15;95.09
29045;BME280;16133;49.486;12.176;2024-01-25T03:05:51;98236.88;;;6.15;95.05
29045;BME280;16133;49.486;12.176;2024-01-25T03:08:17;98234.25;;;6.25;94.37
29045;BME280;16133;49.486;12.176;2024-01-25T03:10:42;98235.00;;;6.37;93.86
29045;BME280;16133;49.486;12.176;2024-01-25T03:13:08;98247.94;;;6.40;92.65
29045;BME280;16133;49.486;12.176;2024-01-25T03:15:33;98240.28;;;6.37;93.16
29045;BME280;16133;49.486;12.176;2024-01-25T03:17:58;98247.50;;;6.35;92.57
29045;BME280;16133;49.486;12.176;2024-01-25T03:20:24;98250.13;;;6.35;93.02
29045;BME280;16133;49.486;12.176;2024-01-25T03:22:49;98251.88;;;6.55;91.59
29045;BME280;16133;49.486;12.176;2024-01-25T03:25:15;98252.94;;;6.43;91.73
29045;BME280;16133;49.486;12.176;2024-01-25T03:27:40;98259.28;;;6.40;92.14
29045;BME280;16133;49.486;12.176;2024-01-25T03:30:06;98256.75;;;6.29;92.67
29045;BME280;16133;49.486;12.176;2024-01-25T03:32:33;98253.81;;;6.22;92.52
29045;BME280;16133;49.486;12.176;2024-01-25T03:34:58;98266.53;;;6.17;93.08
29045;BME280;16133;49.486;12.176;2024-01-25T03:37:24;98256.00;;;6.17;93.23
29045;BME280;16133;49.486;12.176;2024-01-25T03:39:49;98257.59;;;6.30;91.99
29045;BME280;16133;49.486;12.176;2024-01-25T03:42:14;98252.28;;;6.20;93.17
29045;BME280;16133;49.486;12.176;2024-01-25T03:44:40;98247.97;;;6.19;93.14
29045;BME280;16133;49.486;12.176;2024-01-25T03:47:07;98248.25;;;6.16;93.05
29045;BME280;16133;49.486;12.176;2024-01-25T03:49:33;98250.03;;;6.15;93.31
29045;BME280;16133;49.486;12.176;2024-01-25T03:51:58;98252.78;;;6.04;93.63
29045;BME280;16133;49.486;12.176;2024-01-25T03:54:23;98253.59;;;6.05;93.32
29045;BME280;16133;49.486;12.176;2024-01-25T03:56:49;98253.53;;;5.95;94.44
29045;BME280;16133;49.486;12.176;2024-01-25T03:59:14;98252.59;;;5.96;94.48
29045;BME280;16133;49.486;12.176;2024-01-25T04:01:44;98257.84;;;5.96;94.59
29045;BME280;16133;49.486;12.176;2024-01-25T04:04:09;98261.06;;;6.00;94.21
29045;BME280;16133;49.486;12.176;2024-01-25T04:06:42;98254.28;;;6.07;93.38
29045;BME280;16133;49.486;12.176;2024-01-25T04:09:11;98268.56;;;6.04;94.19
29045;BME280;16133;49.486;12.176;2024-01-25T04:11:37;98274.28;;;6.09;93.76
29045;BME280;16133;49.486;12.176;2024-01-25T04:14:04;98261.13;;;6.09;93.16
29045;BME280;16133;49.486;12.176;2024-01-25T04:16:30;98255.19;;;6.17;92.64
29045;BME280;16133;49.486;12.176;2024-01-25T04:18:55;98267.56;;;6.26;92.08
29045;BME280;16133;49.486;12.176;2024-01-25T04:21:21;98270.41;;;6.13;92.91
29045;BME280;16133;49.486;12.176;2024-01-25T04:23:46;98282.88;;;6.11;92.55
29045;BME280;16133;49.486;12.176;2024-01-25T04:26:12;98272.44;;;6.00;93.54
29045;BME280;16133;49.486;12.176;2024-01-25T04:28:37;98268.00;;;6.01;93.57
29045;BME280;16133;49.486;12.176;2024-01-25T04:31:03;98277.69;;;6.00;93.35
29045;BME280;16133;49.486;12.176;2024-01-25T04:33:29;98273.38;;;5.99;93.77
29045;BME280;16133;49.486;12.176;2024-01-25T04:35:55;98273.66;;;5.96;93.97
29045;BME280;16133;49.486;12.176;2024-01-25T04:38:21;98264.66;;;5.99;93.86
29045;BME280;16133;49.486;12.176;2024-01-25T04:40:46;98275.56;;;5.94;93.92
29045;BME280;16133;49.486;12.176;2024-01-25T04:43:11;98279.59;;;5.98;93.36
29045;BME280;16133;49.486;12.176;2024-01-25T04:45:38;98280.59;;;5.97;93.73
29045;BME280;16133;49.486;12.176;2024-01-25T04:48:03;98291.44;;;6.04;93.99
29045;BME280;16133;49.486;12.176;2024-01-25T04:50:29;98286.56;;;5.99;93.51
29045;BME280;16133;49.486;12.176;2024-01-25T04:52:54;98276.22;;;5.87;94.05
29045;BME280;16133;49.486;12.176;2024-01-25T04:55:20;98295.25;;;5.79;94.86
29045;BME280;16133;49.486;12.176;2024-01-25T04:57:45;98291.94;;;5.77;95.36
29045;BME280;16133;49.486;12.176;2024-01-25T05:00:12;98300.78;;;5.76;95.73
29045;BME280;16133;49.486;12.176;2024-01-25T05:02:38;98320.88;;;5.88;94.85
29045;BME280;16133;49.486;12.176;2024-01-25T05:05:03;98322.06;;;5.84;95.54
29045;BME280;16133;49.486;12.176;2024-01-25T05:07:28;98310.00;;;5.82;95.70
29045;BME280;16133;49.486;12.176;2024-01-25T05:09:54;98311.84;;;5.70;96.32
29045;BME280;16133;49.486;12.176;2024-01-25T05:12:19;98307.06;;;5.64;97.08
29045;BME280;16133;49.486;12.176;2024-01-25T05:14:44;98299.94;;;5.55;99.31
29045;BME280;16133;49.486;12.176;2024-01-25T05:17:10;98302.41;;;5.36;100.00
29045;BME280;16133;49.486;12.176;2024-01-25T05:19:35;98312.75;;;5.16;100.00
29045;BME280;16133;49.486;12.176;2024-01-25T05:22:00;98312.84;;;5.26;100.00
29045;BME280;16133;49.486;12.176;2024-01-25T05:24:31;98313.72;;;5.15;100.00
29045;BME280;16133;49.486;12.176;2024-01-25T05:26:56;98311.59;;;5.09;100.00
29045;BME280;16133;49.486;12.176;2024-01-25T05:29:21;98301.66;;;5.13;100.00
29045;BME280;16133;49.486;12.176;2024-01-25T05:31:47;98294.78;;;5.21;100.00
29045;BME280;16133;49.486;12.176;2024-01-25T05:34:13;98299.72;;;5.15;100.00
29045;BME280;16133;49.486;12.176;2024-01-25T05:36:39;98289.44;;;5.12;100.00
29045;BME280;16133;49.486;12.176;2024-01-25T05:39:04;98293.94;;;4.89;100.00
29045;BME280;16133;49.486;12.176;2024-01-25T05:41:31;98304.34;;;4.79;100.00
29045;BME280;16133;49.486;12.176;2024-01-25T05:43:57;98292.28;;;4.66;100.00
29045;BME280;16133;49.486;12.176;2024-01-25T05:46:22;98285.59;;;4.73;100.00
29045;BME280;16133;49.486;12.176;2024-01-25T05:48:47;98303.75;;;4.54;100.00
29045;BME280;16133;49.486;12.176;2024-01-25T05:51:13;98308.88;;;4.77;100.00
29045;BME280;16133;49.486;12.176;2024-01-25T05:53:39;98312.59;;;4.53;100.00
29045;BME280;16133;49.486;12.176;2024-01-25T05:56:04;98320.97;;;4.47;100.00
29045;BME280;16133;49.486;12.176;2024-01-25T05:58:30;98323.25;;;4.29;100.00
29045;BME280;16133;49.486;12.176;2024-01-25T06:00:55;98331.56;;;4.23;100.00
29045;BME280;16133;49.486;12.176;2024-01-25T06:03:20;98320.69;;;4.05;100.00
29045;BME280;16133;49.486;12.176;2024-01-25T06:05:46;98324.50;;;4.01;100.00
29045;BME280;16133;49.486;12.176;2024-01-25T06:08:11;98320.19;;;4.00;100.00
29045;BME280;16133;49.486;12.176;2024-01-25T06:10:36;98315.19;;;3.97;100.00
29045;BME280;16133;49.486;12.176;2024-01-25T06:13:02;98304.94;;;3.94;100.00
29045;BME280;16133;49.486;12.176;2024-01-25T06:15:28;98301.78;;;3.78;100.00
29045;BME280;16133;49.486;12.176;2024-01-25T06:17:53;98299.19;;;4.00;100.00
29045;BME280;16133;49.486;12.176;2024-01-25T06:20:18;98307.06;;;3.89;100.00
29045;BME280;16133;49.486;12.176;2024-01-25T06:22:44;98299.31;;;3.99;100.00
29045;BME280;16133;49.486;12.176;2024-01-25T06:25:09;98303.50;;;3.90;100.00
29045;BME280;16133;49.486;12.176;2024-01-25T06:27:34;98290.34;;;3.90;100.00
29045;BME280;16133;49.486;12.176;2024-01-25T06:30:00;98298.00;;;3.93;100.00
29045;BME280;16133;49.486;12.176;2024-01-25T06:32:25;98292.47;;;3.85;100.00
29045;BME280;16133;49.486;12.176;2024-01-25T06:34:50;98304.47;;;4.33;100.00
29045;BME280;16133;49.486;12.176;2024-01-25T06:37:16;98299.69;;;4.50;100.00
29045;BME280;16133;49.486;12.176;2024-01-25T06:39:44;98299.47;;;4.30;100.00
29045;BME280;16133;49.486;12.176;2024-01-25T06:42:09;98295.41;;;4.38;100.00
29045;BME280;16133;49.486;12.176;2024-01-25T06:44:34;98303.78;;;4.31;100.00
29045;BME280;16133;49.486;12.176;2024-01-25T06:47:00;98311.78;;;4.52;100.00
29045;BME280;16133;49.486;12.176;2024-01-25T06:49:25;98311.06;;;4.61;100.00
29045;BME280;16133;49.486;12.176;2024-01-25T06:51:50;98317.13;;;4.73;100.00
29045;BME280;16133;49.486;12.176;2024-01-25T06:54:16;98315.13;;;4.54;100.00
29045;BME280;16133;49.486;12.176;2024-01-25T06:56:41;98321.81;;;4.58;100.00
29045;BME280;16133;49.486;12.176;2024-01-25T06:59:07;98321.66;;;4.49;100.00
29045;BME280;16133;49.486;12.176;2024-01-25T07:01:32;98316.91;;;4.54;100.00
29045;BME280;16133;49.486;12.176;2024-01-25T07:03:58;98311.66;;;4.54;100.00
29045;BME280;16133;49.486;12.176;2024-01-25T07:06:23;98321.56;;;4.61;100.00
29045;BME280;16133;49.486;12.176;2024-01-25T07:08:49;98325.38;;;4.57;100.00
29045;BME280;16133;49.486;12.176;2024-01-25T07:11:14;98332.66;;;4.31;100.00
29045;BME280;16133;49.486;12.176;2024-01-25T07:13:41;98337.09;;;4.53;100.00
29045;BME280;16133;49.486;12.176;2024-01-25T07:16:06;98346.06;;;4.40;100.00
29045;BME280;16133;49.486;12.176;2024-01-25T07:18:31;98352.75;;;4.32;100.00
29045;BME280;16133;49.486;12.176;2024-01-25T07:20:57;98361.34;;;4.57;100.00
29045;BME280;16133;49.486;12.176;2024-01-25T07:23:22;98360.97;;;4.50;100.00
29045;BME280;16133;49.486;12.176;2024-01-25T07:25:47;98361.72;;;4.63;100.00
29045;BME280;16133;49.486;12.176;2024-01-25T07:28:13;98358.25;;;4.63;100.00
29045;BME280;16133;49.486;12.176;2024-01-25T07:30:39;98364.22;;;4.65;100.00
29045;BME280;16133;49.486;12.176;2024-01-25T07:33:04;98366.50;;;4.69;100.00
29045;BME280;16133;49.486;12.176;2024-01-25T07:35:30;98374.97;;;4.62;100.00
29045;BME280;16133;49.486;12.176;2024-01-25T07:37:55;98365.88;;;4.66;100.00
29045;BME280;16133;49.486;12.176;2024-01-25T07:40:20;98361.81;;;4.84;100.00
29045;BME280;16133;49.486;12.176;2024-01-25T07:42:46;98366.72;;;4.89;100.00
29045;BME280;16133;49.486;12.176;2024-01-25T07:45:12;98374.25;;;4.82;100.00
29045;BME280;16133;49.486;12.176;2024-01-25T07:47:41;98376.41;;;4.66;100.00
29045;BME280;16133;49.486;12.176;2024-01-25T07:50:06;98378.53;;;4.50;100.00
29045;BME280;16133;49.486;12.176;2024-01-25T07:52:32;98389.19;;;4.70;100.00
29045;BME280;16133;49.486;12.176;2024-01-25T07:54:57;98392.41;;;4.63;100.00
29045;BME280;16133;49.486;12.176;2024-01-25T07:57:22;98392.41;;;4.74;100.00
29045;BME280;16133;49.486;12.176;2024-01-25T07:59:48;98401.00;;;4.87;100.00
29045;BME280;16133;49.486;12.176;2024-01-25T08:02:13;98392.91;;;4.90;100.00
29045;BME280;16133;49.486;12.176;2024-01-25T08:04:39;98405.56;;;5.07;100.00
29045;BME280;16133;49.486;12.176;2024-01-25T08:07:04;98407.22;;;5.19;100.00
29045;BME280;16133;49.486;12.176;2024-01-25T08:09:30;98403.50;;;5.22;100.00
29045;BME280;16133;49.486;12.176;2024-01-25T08:11:55;98399.31;;;5.19;100.00
29045;BME280;16133;49.486;12.176;2024-01-25T08:14:20;98404.09;;;5.14;100.00
29045;BME280;16133;49.486;12.176;2024-01-25T08:16:46;98395.97;;;5.06;100.00
29045;BME280;16133;49.486;12.176;2024-01-25T08:19:11;98403.88;;;4.95;100.00
29045;BME280;16133;49.486;12.176;2024-01-25T08:21:36;98413.94;;;4.90;100.00
29045;BME280;16133;49.486;12.176;2024-01-25T08:24:02;98417.28;;;4.92;100.00
29045;BME280;16133;49.486;12.176;2024-01-25T08:26:28;98411.53;;;4.87;100.00
29045;BME280;16133;49.486;12.176;2024-01-25T08:28:53;98418.59;;;4.87;100.00
29045;BME280;16133;49.486;12.176;2024-01-25T08:31:18;98417.03;;;5.06;100.00
29045;BME280;16133;49.486;12.176;2024-01-25T08:33:44;98428.50;;;5.16;100.00
29045;BME280;16133;49.486;12.176;2024-01-25T08:36:13;98438.50;;;5.45;100.00
29045;BME280;16133;49.486;12.176;2024-01-25T08:38:38;98423.84;;;5.74;98.06
29045;BME280;16133;49.486;12.176;2024-01-25T08:41:04;98433.75;;;5.93;96.14
29045;BME280;16133;49.486;12.176;2024-01-25T08:43:29;98439.56;;;6.07;95.49
29045;BME280;16133;49.486;12.176;2024-01-25T08:45:55;98445.34;;;6.22;94.74
29045;BME280;16133;49.486;12.176;2024-01-25T08:48:20;98449.16;;;6.50;91.41
29045;BME280;16133;49.486;12.176;2024-01-25T08:50:46;98460.09;;;6.66;90.20
29045;BME280;16133;49.486;12.176;2024-01-25T08:53:11;98452.03;;;6.67;89.09
29045;BME280;16133;49.486;12.176;2024-01-25T08:55:40;98457.28;;;6.58;89.33
29045;BME280;16133;49.486;12.176;2024-01-25T08:58:05;98464.53;;;6.65;89.66
29045;BME280;16133;49.486;12.176;2024-01-25T09:00:31;98470.84;;;6.74;87.91
29045;BME280;16133;49.486;12.176;2024-01-25T09:02:56;98476.53;;;6.79;88.58
29045;BME280;16133;49.486;12.176;2024-01-25T09:05:22;98472.69;;;6.83;87.85
29045;BME280;16133;49.486;12.176;2024-01-25T09:07:47;98481.06;;;6.88;88.27
29045;BME280;16133;49.486;12.176;2024-01-25T09:10:13;98484.16;;;6.93;87.29
29045;BME280;16133;49.486;12.176;2024-01-25T09:12:38;98483.03;;;6.96;86.49
29045;BME280;16133;49.486;12.176;2024-01-25T09:15:04;98484.25;;;7.12;85.91
29045;BME280;16133;49.486;12.176;2024-01-25T09:17:30;98488.63;;;7.02;84.57
29045;BME280;16133;49.486;12.176;2024-01-25T09:19:55;98492.63;;;6.97;84.11
29045;BME280;16133;49.486;12.176;2024-01-25T09:22:24;98490.34;;;7.13;83.88
29045;BME280;16133;49.486;12.176;2024-01-25T09:24:49;98494.47;;;7.36;82.58
29045;BME280;16133;49.486;12.176;2024-01-25T09:27:14;98491.59;;;7.39;82.42
29045;BME280;16133;49.486;12.176;2024-01-25T09:29:40;98492.16;;;7.52;81.60
29045;BME280;16133;49.486;12.176;2024-01-25T09:32:06;98490.53;;;7.61;82.47
29045;BME280;16133;49.486;12.176;2024-01-25T09:34:33;98488.47;;;7.64;81.06
29045;BME280;16133;49.486;12.176;2024-01-25T09:36:58;98503.09;;;7.78;80.27
29045;BME280;16133;49.486;12.176;2024-01-25T09:39:23;98485.03;;;7.83;80.07
29045;BME280;16133;49.486;12.176;2024-01-25T09:41:49;98493.94;;;7.92;78.48
29045;BME280;16133;49.486;12.176;2024-01-25T09:44:14;98499.13;;;8.03;77.23
29045;BME280;16133;49.486;12.176;2024-01-25T09:46:41;98509.28;;;8.07;77.02
29045;BME280;16133;49.486;12.176;2024-01-25T09:49:07;98508.03;;;8.11;75.78
29045;BME280;16133;49.486;12.176;2024-01-25T09:51:37;98523.47;;;8.06;76.53
29045;BME280;16133;49.486;12.176;2024-01-25T09:54:04;98515.38;;;7.98;75.29
29045;BME280;16133;49.486;12.176;2024-01-25T09:56:32;98521.22;;;8.02;75.93
29045;BME280;16133;49.486;12.176;2024-01-25T09:58:58;98525.41;;;8.04;76.81
29045;BME280;16133;49.486;12.176;2024-01-25T10:01:24;98524.16;;;7.99;76.67
29045;BME280;16133;49.486;12.176;2024-01-25T10:03:49;98532.75;;;7.91;76.16
29045;BME280;16133;49.486;12.176;2024-01-25T10:06:15;98536.97;;;8.03;75.67
29045;BME280;16133;49.486;12.176;2024-01-25T10:08:41;98544.13;;;7.82;76.89
29045;BME280;16133;49.486;12.176;2024-01-25T10:11:07;98544.56;;;7.87;76.56
29045;BME280;16133;49.486;12.176;2024-01-25T10:13:46;98543.59;;;7.88;76.72
29045;BME280;16133;49.486;12.176;2024-01-25T10:16:16;98537.75;;;7.94;75.35
29045;BME280;16133;49.486;12.176;2024-01-25T10:18:43;98542.69;;;8.08;75.42
29045;BME280;16133;49.486;12.176;2024-01-25T10:21:09;98547.97;;;8.18;74.26
29045;BME280;16133;49.486;12.176;2024-01-25T10:23:35;98545.59;;;8.25;74.54
29045;BME280;16133;49.486;12.176;2024-01-25T10:26:00;98548.31;;;8.34;74.00
29045;BME280;16133;49.486;12.176;2024-01-25T10:28:25;98550.78;;;8.36;72.78
29045;BME280;16133;49.486;12.176;2024-01-25T10:30:56;98548.31;;;8.44;73.68
29045;BME280;16133;49.486;12.176;2024-01-25T10:33:24;98543.00;;;8.44;72.70
29045;BME280;16133;49.486;12.176;2024-01-25T10:35:50;98539.84;;;8.50;73.62
29045;BME280;16133;49.486;12.176;2024-01-25T10:38:20;98530.47;;;8.55;73.17
29045;BME280;16133;49.486;12.176;2024-01-25T10:40:46;98538.41;;;8.55;71.13
29045;BME280;16133;49.486;12.176;2024-01-25T10:43:12;98537.75;;;8.53;71.18
29045;BME280;16133;49.486;12.176;2024-01-25T10:45:37;98542.75;;;8.47;69.54
29045;BME280;16133;49.486;12.176;2024-01-25T10:48:03;98554.56;;;8.33;70.74
29045;BME280;16133;49.486;12.176;2024-01-25T10:50:29;98549.94;;;8.26;71.53
29045;BME280;16133;49.486;12.176;2024-01-25T10:52:55;98554.69;;;8.32;70.05
29045;BME280;16133;49.486;12.176;2024-01-25T10:55:21;98554.38;;;8.15;71.16
29045;BME280;16133;49.486;12.176;2024-01-25T10:57:47;98547.97;;;8.18;70.23
29045;BME280;16133;49.486;12.176;2024-01-25T11:00:14;98542.31;;;8.32;71.82
29045;BME280;16133;49.486;12.176;2024-01-25T11:02:41;98538.41;;;8.55;69.31
29045;BME280;16133;49.486;12.176;2024-01-25T11:05:12;98526.88;;;8.47;68.08
29045;BME280;16133;49.486;12.176;2024-01-25T11:07:45;98534.41;;;8.42;69.15
29045;BME280;16133;49.486;12.176;2024-01-25T11:10:14;98527.31;;;8.42;70.03
29045;BME280;16133;49.486;12.176;2024-01-25T11:13:13;98527.72;;;8.38;69.49
29045;BME280;16133;49.486;12.176;2024-01-25T11:15:39;98525.34;;;8.44;69.09
29045;BME280;16133;49.486;12.176;2024-01-25T11:18:08;98526.59;;;8.40;70.09
29045;BME280;16133;49.486;12.176;2024-01-25T11:20:34;98525.75;;;8.40;70.45
29045;BME280;16133;49.486;12.176;2024-01-25T11:23:04;98531.88;;;8.31;68.54
29045;BME280;16133;49.486;12.176;2024-01-25T11:25:37;98531.81;;;8.21;70.26
29045;BME280;16133;49.486;12.176;2024-01-25T11:28:04;98524.44;;;8.05;69.97
29045;BME280;16133;49.486;12.176;2024-01-25T11:30:33;98528.34;;;8.11;70.40
29045;BME280;16133;49.486;12.176;2024-01-25T11:32:59;98515.44;;;8.27;69.24
29045;BME280;16133;49.486;12.176;2024-01-25T11:35:24;98528.53;;;8.29;69.96
29045;BME280;16133;49.486;12.176;2024-01-25T11:37:50;98534.81;;;8.37;70.04
29045;BME280;16133;49.486;12.176;2024-01-25T11:40:19;98532.88;;;8.39;67.48
29045;BME280;16133;49.486;12.176;2024-01-25T11:42:49;98532.56;;;8.33;68.91
29045;BME280;16133;49.486;12.176;2024-01-25T11:45:15;98529.94;;;8.42;67.86
29045;BME280;16133;49.486;12.176;2024-01-25T11:47:42;98530.66;;;8.54;66.95
29045;BME280;16133;49.486;12.176;2024-01-25T11:50:10;98531.88;;;8.40;67.86
29045;BME280;16133;49.486;12.176;2024-01-25T11:52:36;98533.53;;;8.51;67.14
29045;BME280;16133;49.486;12.176;2024-01-25T11:55:08;98528.69;;;8.56;65.63
29045;BME280;16133;49.486;12.176;2024-01-25T11:57:37;98527.28;;;8.52;66.80
29045;BME280;16133;49.486;12.176;2024-01-25T12:00:08;98527.44;;;8.60;65.70
29045;BME280;16133;49.486;12.176;2024-01-25T12:02:36;98529.09;;;8.61;67.14
29045;BME280;16133;49.486;12.176;2024-01-25T12:05:03;98532.31;;;8.64;64.97
29045;BME280;16133;49.486;12.176;2024-01-25T12:07:32;98532.03;;;8.77;64.50
29045;BME280;16133;49.486;12.176;2024-01-25T12:10:10;98527.16;;;8.53;65.52
29045;BME280;16133;49.486;12.176;2024-01-25T12:12:36;98530.06;;;8.60;66.50
29045;BME280;16133;49.486;12.176;2024-01-25T12:15:05;98521.56;;;8.76;66.25
29045;BME280;16133;49.486;12.176;2024-01-25T12:17:31;98514.03;;;8.90;65.97
29045;BME280;16133;49.486;12.176;2024-01-25T12:19:57;98526.84;;;9.04;65.71
29045;BME280;16133;49.486;12.176;2024-01-25T12:22:24;98529.19;;;9.07;66.16
29045;BME280;16133;49.486;12.176;2024-01-25T12:24:53;98521.78;;;9.11;63.32
29045;BME280;16133;49.486;12.176;2024-01-25T12:27:22;98520.72;;;8.94;63.79
29045;BME280;16133;49.486;12.176;2024-01-25T12:29:50;98528.38;;;8.78;64.22
29045;BME280;16133;49.486;12.176;2024-01-25T12:32:16;98529.09;;;8.51;66.17
29045;BME280;16133;49.486;12.176;2024-01-25T12:34:41;98521.59;;;8.47;67.03
29045;BME280;16133;49.486;12.176;2024-01-25T12:37:09;98515.88;;;8.42;66.93
29045;BME280;16133;49.486;12.176;2024-01-25T12:39:34;98515.31;;;8.38;67.11
29045;BME280;16133;49.486;12.176;2024-01-25T12:41:59;98516.84;;;8.41;67.39
29045;BME280;16133;49.486;12.176;2024-01-25T12:44:25;98521.31;;;8.31;68.65
29045;BME280;16133;49.486;12.176;2024-01-25T12:46:51;98515.84;;;8.23;69.37
29045;BME280;16133;49.486;12.176;2024-01-25T12:49:17;98512.34;;;8.22;68.05
29045;BME280;16133;49.486;12.176;2024-01-25T12:51:42;98525.13;;;8.17;68.35